createdAt,value
2019-05-03T00:00:57.249Z,31.50
2019-05-03T00:03:28.285Z,31.70
2019-05-03T00:06:01.780Z,31.80
2019-05-03T00:08:33.448Z,32.00
2019-05-03T00:11:05.198Z,32.30
2019-05-03T00:13:36.546Z,32.50
2019-05-03T00:16:09.128Z,32.80
2019-05-03T00:18:42.162Z,32.90
2019-05-03T00:21:14.089Z,33.00
2019-05-03T00:23:45.530Z,33.10
2019-05-03T00:26:17.304Z,33.30
2019-05-03T00:28:47.342Z,33.50
2019-05-03T00:31:18.968Z,33.60
2019-05-03T00:33:51.692Z,33.90
2019-05-03T00:36:24.268Z,34.10
2019-05-03T00:38:56.752Z,34.30
2019-05-03T00:44:16.190Z,34.60
2019-05-03T00:46:46.430Z,34.80
2019-05-03T00:49:18.090Z,35.00
2019-05-03T00:51:51.630Z,35.20
2019-05-03T00:54:22.908Z,35.40
2019-05-03T00:56:54.688Z,35.60
2019-05-03T00:59:26.014Z,35.90
2019-05-03T01:01:57.576Z,36.00
2019-05-03T01:04:29.462Z,36.10
2019-05-03T01:07:02.254Z,36.20
2019-05-03T01:09:33.760Z,36.30
2019-05-03T01:12:05.533Z,36.50
2019-05-03T01:14:38.685Z,36.60
2019-05-03T01:17:11.744Z,36.70
2019-05-03T01:19:43.286Z,36.80
2019-05-03T01:22:13.837Z,36.90
2019-05-03T01:24:45.576Z,37.00
2019-05-03T01:27:17.428Z,37.10
2019-05-03T01:29:48.643Z,37.20
2019-05-03T01:32:19.594Z,37.30
2019-05-03T01:34:52.326Z,37.40
2019-05-03T01:37:23.776Z,37.50
2019-05-03T01:39:55.479Z,37.60
2019-05-03T01:42:27.339Z,37.70
2019-05-03T01:44:58.857Z,37.90
2019-05-03T01:47:30.292Z,38.10
2019-05-03T01:50:02.937Z,38.40
2019-05-03T01:52:36.511Z,38.60
2019-05-03T01:55:13.242Z,38.80
2019-05-03T01:57:42.400Z,39.00
2019-05-03T02:00:17.136Z,39.20
2019-05-03T02:02:49.763Z,39.40
2019-05-03T02:05:43.066Z,39.70
2019-05-03T02:08:16.486Z,40.00
2019-05-03T02:10:48.341Z,40.40
2019-05-03T02:13:19.859Z,40.70
2019-05-03T02:15:52.716Z,40.90
2019-05-03T02:18:31.839Z,41.10
2019-05-03T02:21:04.084Z,41.30
2019-05-03T02:23:35.269Z,41.50
2019-05-03T02:26:14.345Z,41.80
2019-05-03T02:28:46.273Z,42.00
2019-05-03T02:31:17.382Z,42.30
2019-05-03T02:33:48.777Z,42.40
2019-05-03T02:38:53.449Z,43.00
2019-05-03T02:41:23.981Z,43.30
2019-05-03T02:43:56.883Z,43.50
2019-05-03T02:46:29.974Z,43.60
2019-05-03T02:49:02.957Z,43.60
2019-05-03T02:51:35.988Z,43.70
2019-05-03T02:54:09.372Z,43.80
2019-05-03T02:56:41.246Z,43.90
2019-05-03T02:59:15.447Z,44.10
2019-05-03T03:01:46.462Z,44.10
2019-05-03T03:04:19.207Z,44.00
2019-05-03T03:06:51.695Z,43.70
2019-05-03T03:09:26.119Z,43.40
2019-05-03T03:12:00.006Z,43.40
2019-05-03T03:14:36.003Z,43.60
2019-05-03T03:17:08.563Z,43.70
2019-05-03T03:19:41.571Z,43.90
2019-05-03T03:22:15.973Z,43.90
2019-05-03T03:24:49.261Z,44.00
2019-05-03T03:27:25.541Z,44.00
2019-05-03T03:29:58.003Z,44.00
2019-05-03T03:32:31.389Z,44.10
2019-05-03T03:35:11.288Z,44.00
2019-05-03T03:37:38.916Z,43.90
2019-05-03T03:40:10.630Z,43.80
2019-05-03T03:42:45.007Z,43.60
2019-05-03T03:45:16.776Z,43.50
2019-05-03T03:47:49.845Z,43.10
2019-05-03T03:50:21.691Z,42.50
2019-05-03T03:52:55.825Z,41.90
2019-05-03T03:55:28.606Z,41.40
2019-05-03T03:58:00.135Z,41.00
2019-05-03T04:00:31.691Z,40.60
2019-05-03T04:03:05.858Z,40.20
2019-05-03T04:05:36.601Z,39.90
2019-05-03T04:08:07.655Z,39.70
2019-05-03T04:10:40.605Z,39.60
2019-05-03T04:13:15.732Z,39.50
2019-05-03T04:15:47.702Z,39.30
2019-05-03T04:18:21.551Z,39.20
2019-05-03T04:20:53.042Z,39.10
2019-05-03T04:23:26.500Z,39.10
2019-05-03T04:25:58.514Z,39.20
2019-05-03T04:28:30.282Z,39.40
2019-05-03T04:31:01.294Z,39.50
2019-05-03T04:33:32.495Z,39.60
2019-05-03T04:36:05.450Z,39.60
2019-05-03T04:38:36.197Z,39.50
2019-05-03T04:41:07.261Z,39.50
2019-05-03T04:43:38.305Z,39.50
2019-05-03T04:46:10.610Z,39.50
2019-05-03T04:48:41.444Z,39.40
2019-05-03T04:51:13.276Z,39.10
2019-05-03T04:54:05.375Z,38.90
2019-05-03T04:56:36.929Z,38.80
2019-05-03T04:59:06.642Z,38.80
2019-05-03T05:01:37.618Z,38.70
2019-05-03T05:04:09.395Z,38.70
2019-05-03T05:06:40.347Z,38.80
2019-05-03T05:09:11.790Z,38.90
2019-05-03T05:11:41.665Z,39.00
2019-05-03T05:14:15.113Z,39.00
2019-05-03T05:16:46.645Z,39.00
2019-05-03T05:19:19.279Z,39.00
2019-05-03T05:21:52.118Z,39.00
2019-05-03T05:24:22.978Z,39.10
2019-05-03T05:26:55.539Z,39.20
2019-05-03T05:29:27.935Z,39.30
2019-05-03T05:31:59.604Z,39.40
2019-05-03T05:34:31.430Z,39.40
2019-05-03T05:37:02.951Z,39.30
2019-05-03T05:39:35.613Z,39.30
2019-05-03T05:42:07.439Z,39.40
2019-05-03T05:44:38.771Z,39.40
2019-05-03T05:47:10.020Z,39.50
2019-05-03T05:49:44.243Z,39.50
2019-05-03T05:52:15.546Z,39.60
2019-05-03T05:54:48.103Z,39.60
2019-05-03T05:57:20.786Z,39.50
2019-05-03T05:59:54.473Z,39.50
2019-05-03T06:02:25.942Z,39.40
2019-05-03T06:04:57.781Z,39.40
2019-05-03T06:07:30.943Z,39.40
2019-05-03T06:10:05.133Z,39.50
2019-05-03T06:12:37.750Z,39.50
2019-05-03T06:15:11.737Z,39.70
2019-05-03T06:17:45.087Z,39.80
2019-05-03T06:20:18.460Z,39.90
2019-05-03T06:22:51.554Z,40.00
2019-05-03T06:25:26.502Z,40.10
2019-05-03T06:27:57.606Z,40.20
2019-05-03T06:30:30.633Z,40.10
2019-05-03T06:33:02.449Z,40.00
2019-05-03T06:35:34.590Z,39.80
2019-05-03T06:38:07.617Z,39.70
2019-05-03T06:40:38.987Z,39.40
2019-05-03T06:43:29.163Z,39.20
2019-05-03T06:46:00.986Z,39.20
2019-05-03T06:48:32.131Z,39.20
2019-05-03T06:51:08.789Z,39.30
2019-05-03T06:53:36.416Z,39.30
2019-05-03T06:56:08.267Z,39.40
2019-05-03T06:58:39.468Z,39.40
2019-05-03T07:01:12.244Z,39.60
2019-05-03T07:03:44.931Z,39.70
2019-05-03T07:06:17.245Z,39.90
2019-05-03T07:08:50.064Z,40.00
2019-05-03T07:11:21.432Z,40.10
2019-05-03T07:13:52.121Z,40.20
2019-05-03T07:16:25.328Z,40.10
2019-05-03T07:18:58.512Z,40.10
2019-05-03T07:21:29.852Z,40.00
2019-05-03T07:24:21.288Z,39.90
2019-05-03T07:26:54.981Z,39.90
2019-05-03T07:29:26.442Z,39.80
2019-05-03T07:31:58.390Z,39.70
2019-05-03T07:34:29.932Z,39.60
2019-05-03T07:37:01.905Z,39.60
2019-05-03T07:39:34.971Z,39.60
2019-05-03T07:42:06.711Z,39.50
2019-05-03T07:44:38.159Z,39.40
2019-05-03T07:47:09.872Z,39.30
2019-05-03T07:49:41.453Z,39.20
2019-05-03T07:52:14.818Z,39.20
2019-05-03T07:54:46.991Z,39.20
2019-05-03T07:57:19.614Z,39.30
2019-05-03T07:59:50.835Z,39.30
2019-05-03T08:02:25.167Z,39.30
2019-05-03T08:04:56.184Z,39.40
2019-05-03T08:07:27.502Z,39.40
2019-05-03T08:09:57.520Z,39.30
2019-05-03T08:12:28.848Z,39.20
2019-05-03T08:14:59.547Z,39.10
2019-05-03T08:17:31.322Z,39.00
2019-05-03T08:20:02.402Z,38.90
2019-05-03T08:22:34.491Z,38.80
2019-05-03T08:25:07.443Z,38.80
2019-05-03T08:27:39.233Z,38.70
2019-05-03T08:30:14.675Z,38.80
2019-05-03T08:32:46.782Z,38.80
2019-05-03T08:35:19.903Z,38.90
2019-05-03T08:37:54.663Z,38.90
2019-05-03T08:40:27.421Z,39.00
2019-05-03T08:42:59.424Z,39.00
2019-05-03T08:45:30.661Z,39.10
2019-05-03T08:48:22.216Z,39.10
2019-05-03T08:50:55.439Z,39.20
2019-05-03T08:53:26.807Z,39.10
2019-05-03T08:55:57.488Z,39.10
2019-05-03T08:58:28.628Z,39.10
2019-05-03T09:00:59.779Z,39.10
2019-05-03T09:03:31.525Z,39.10
2019-05-03T09:06:04.509Z,39.00
2019-05-03T09:08:36.019Z,38.90
2019-05-03T09:11:09.076Z,38.80
2019-05-03T09:13:41.579Z,38.70
2019-05-03T09:16:14.793Z,38.60
2019-05-03T09:18:45.948Z,38.60
2019-05-03T09:21:17.135Z,38.50
2019-05-03T09:23:48.331Z,38.60
2019-05-03T09:26:19.741Z,38.50
2019-05-03T09:28:51.293Z,38.40
2019-05-03T09:31:24.695Z,38.40
2019-05-03T09:33:55.578Z,38.40
2019-05-03T09:36:27.304Z,38.40
2019-05-03T09:38:59.042Z,38.40
2019-05-03T09:41:30.541Z,38.40
2019-05-03T09:44:01.589Z,38.30
2019-05-03T09:46:32.719Z,38.30
2019-05-03T09:49:13.442Z,38.20
2019-05-03T09:51:37.361Z,38.30
2019-05-03T09:54:10.027Z,38.30
2019-05-03T09:56:52.876Z,38.20
2019-05-03T09:59:15.068Z,38.20
2019-05-03T10:01:46.276Z,38.20
2019-05-03T10:04:18.226Z,38.10
2019-05-03T10:06:49.826Z,38.10
2019-05-03T10:09:21.188Z,38.10
2019-05-03T10:11:54.734Z,38.10
2019-05-03T10:14:26.125Z,38.10
2019-05-03T10:16:58.855Z,38.00
2019-05-03T10:19:37.698Z,37.90
2019-05-03T10:22:04.463Z,37.80
2019-05-03T10:24:36.175Z,37.80
2019-05-03T10:27:07.594Z,37.60
2019-05-03T10:30:09.571Z,37.60
2019-05-03T10:32:31.816Z,37.50
2019-05-03T10:35:05.695Z,37.40
2019-05-03T10:37:40.791Z,37.40
2019-05-03T10:40:13.743Z,37.20
2019-05-03T10:42:45.809Z,37.20
2019-05-03T10:45:17.872Z,37.10
2019-05-03T10:47:49.447Z,37.00
2019-05-03T10:50:19.257Z,36.90
2019-05-03T10:52:51.436Z,36.90
2019-05-03T10:55:24.928Z,36.80
2019-05-03T10:57:56.814Z,36.70
2019-05-03T11:00:50.225Z,36.60
2019-05-03T11:03:05.309Z,36.50
2019-05-03T11:05:36.617Z,36.30
2019-05-03T11:08:08.623Z,36.00
2019-05-03T11:10:40.380Z,35.70
2019-05-03T11:13:12.145Z,35.30
2019-05-03T11:15:44.424Z,34.90
2019-05-03T11:18:16.373Z,34.60
2019-05-03T11:20:48.317Z,34.30
2019-05-03T11:23:20.090Z,34.00
2019-05-03T11:25:50.541Z,33.80
2019-05-03T11:28:24.964Z,33.60
2019-05-03T11:31:01.818Z,33.50
2019-05-03T11:33:30.611Z,33.40
2019-05-03T11:36:04.387Z,33.20
2019-05-03T11:38:37.468Z,33.20
2019-05-03T11:41:08.968Z,33.10
2019-05-03T11:43:41.009Z,33.00
2019-05-03T11:46:12.999Z,33.00
2019-05-03T11:48:45.472Z,32.90
2019-05-03T11:51:16.960Z,32.90
2019-05-03T11:53:48.885Z,32.90
2019-05-03T11:56:19.130Z,32.90
2019-05-03T11:58:50.888Z,32.80
2019-05-03T12:01:25.393Z,32.80
2019-05-03T12:03:56.929Z,32.80
2019-05-03T12:06:27.386Z,32.80
2019-05-03T12:08:59.160Z,32.70
2019-05-03T12:11:31.499Z,32.70
2019-05-03T12:14:21.790Z,32.60
2019-05-03T12:17:14.457Z,32.50
2019-05-03T12:19:31.086Z,32.40
2019-05-03T12:22:00.276Z,32.30
2019-05-03T12:24:32.868Z,32.20
2019-05-03T12:27:05.022Z,32.10
2019-05-03T12:29:36.186Z,32.10
2019-05-03T12:32:07.301Z,31.90
2019-05-03T12:34:38.423Z,31.90
2019-05-03T12:37:09.276Z,31.90
2019-05-03T12:39:40.418Z,32.00
2019-05-03T12:42:11.903Z,32.00
2019-05-03T12:44:42.992Z,32.10
2019-05-03T12:47:14.642Z,32.20
2019-05-03T12:49:45.589Z,32.20
2019-05-03T12:52:17.347Z,32.20
2019-05-03T12:54:48.837Z,32.30
2019-05-03T12:57:19.941Z,32.30
2019-05-03T12:59:55.633Z,32.30
2019-05-03T13:02:27.828Z,32.30
2019-05-03T13:04:58.921Z,32.30
2019-05-03T13:07:31.445Z,32.20
2019-05-03T13:10:02.444Z,32.00
2019-05-03T13:12:34.723Z,32.00
2019-05-03T13:15:07.447Z,32.00
2019-05-03T13:17:39.525Z,32.00
2019-05-03T13:20:12.731Z,32.10
2019-05-03T13:22:45.867Z,32.10
2019-05-03T13:25:19.576Z,32.20
2019-05-03T13:27:50.636Z,32.30
2019-05-03T13:30:22.128Z,32.30
2019-05-03T13:32:54.790Z,32.30
2019-05-03T13:35:26.458Z,32.30
2019-05-03T13:37:57.650Z,32.10
2019-05-03T13:40:28.758Z,32.00
2019-05-03T13:43:03.548Z,31.90
2019-05-03T13:45:31.992Z,31.80
2019-05-03T13:48:05.026Z,31.90
2019-05-03T13:50:35.498Z,31.90
2019-05-03T13:53:06.751Z,32.00
2019-05-03T13:55:40.342Z,32.00
2019-05-03T13:58:11.424Z,31.80
2019-05-03T14:00:42.245Z,31.70
2019-05-03T14:03:15.041Z,31.60
2019-05-03T14:05:45.736Z,31.50
2019-05-03T14:08:16.597Z,31.40
2019-05-03T14:10:47.763Z,31.40
2019-05-03T14:13:18.879Z,31.30
2019-05-03T14:15:49.763Z,31.30
2019-05-03T14:18:20.998Z,31.30
2019-05-03T14:20:54.929Z,31.30
2019-05-03T14:23:27.175Z,31.40
2019-05-03T14:25:58.227Z,31.30
2019-05-03T14:28:29.145Z,31.30
2019-05-03T14:30:59.997Z,31.30
2019-05-03T14:33:30.874Z,31.40
2019-05-03T14:36:01.716Z,31.40
2019-05-03T14:38:32.591Z,31.30
2019-05-03T14:41:05.456Z,31.30
2019-05-03T14:43:36.039Z,31.20
2019-05-03T14:46:06.875Z,31.10
2019-05-03T14:48:37.737Z,31.10
2019-05-03T14:51:08.598Z,31.00
2019-05-03T14:53:39.520Z,30.90
2019-05-03T14:56:11.781Z,30.90
2019-05-03T14:58:45.548Z,30.90
2019-05-03T15:01:17.479Z,30.80
2019-05-03T15:03:48.335Z,30.80
2019-05-03T15:06:19.386Z,30.70
2019-05-03T15:08:50.233Z,30.70
2019-05-03T15:11:21.194Z,30.70
2019-05-03T15:13:52.237Z,30.60
2019-05-03T15:16:24.915Z,30.60
2019-05-03T15:18:55.670Z,30.60
2019-05-03T15:21:26.822Z,30.60
2019-05-03T15:23:58.012Z,30.50
2019-05-03T15:26:29.593Z,30.50
2019-05-03T15:29:01.001Z,30.40
2019-05-03T15:31:35.200Z,30.40
2019-05-03T15:34:05.529Z,30.40
2019-05-03T15:36:37.562Z,30.40
2019-05-03T15:39:08.616Z,30.30
2019-05-03T15:41:40.156Z,30.30
2019-05-03T15:44:14.682Z,30.30
2019-05-03T15:46:47.819Z,30.20
2019-05-03T15:49:19.729Z,30.20
2019-05-03T15:51:53.918Z,30.20
2019-05-03T15:54:25.618Z,30.10
2019-05-03T15:56:58.281Z,30.10
2019-05-03T15:59:29.359Z,30.20
2019-05-03T16:02:00.860Z,30.10
2019-05-03T16:04:32.304Z,30.10
2019-05-03T16:07:04.923Z,30.10
2019-05-03T16:09:36.442Z,30.10
2019-05-03T16:12:08.011Z,30.10
2019-05-03T16:14:39.780Z,30.10
2019-05-03T16:17:11.195Z,30.10
2019-05-03T16:19:45.134Z,30.10
2019-05-03T16:22:15.094Z,30.10
2019-05-03T16:24:47.118Z,30.10
2019-05-03T16:27:18.314Z,30.20
2019-05-03T16:29:49.190Z,30.30
2019-05-03T16:32:20.065Z,30.40
2019-05-03T16:34:51.335Z,30.50
2019-05-03T16:37:22.217Z,30.50
2019-05-03T16:39:55.039Z,30.50
2019-05-03T16:42:25.294Z,30.50
2019-05-03T16:44:57.214Z,30.60
2019-05-03T16:47:28.645Z,30.60
2019-05-03T16:49:59.705Z,30.70
2019-05-03T16:52:31.347Z,30.80
2019-05-03T16:55:02.731Z,30.80
2019-05-03T16:57:35.396Z,30.80
2019-05-03T17:00:09.306Z,30.80
2019-05-03T17:02:40.144Z,30.80
2019-05-03T17:05:14.638Z,30.80
2019-05-03T17:07:46.825Z,30.90
2019-05-03T17:10:19.812Z,30.80
2019-05-03T17:12:50.673Z,30.80
2019-05-03T17:15:22.227Z,30.80
2019-05-03T17:17:53.170Z,30.80
2019-05-03T17:20:25.386Z,30.80
2019-05-03T17:22:56.934Z,30.80
2019-05-03T17:25:28.726Z,30.80
2019-05-03T17:28:00.604Z,30.70
2019-05-03T17:30:34.444Z,30.70
2019-05-03T17:33:05.261Z,30.60
2019-05-03T17:35:37.970Z,30.60
2019-05-03T17:38:09.482Z,30.50
2019-05-03T17:40:42.027Z,30.50
2019-05-03T17:43:14.836Z,30.50
2019-05-03T17:45:47.335Z,30.40
2019-05-03T17:48:18.381Z,30.40
2019-05-03T17:50:49.567Z,30.40
2019-05-03T17:53:22.243Z,30.30
2019-05-03T17:55:55.152Z,30.30
2019-05-03T17:58:29.032Z,30.30
2019-05-03T18:01:02.074Z,30.20
2019-05-03T18:03:34.543Z,30.20
2019-05-03T18:06:07.492Z,30.10
2019-05-03T18:08:39.630Z,30.00
2019-05-03T18:11:11.178Z,30.00
2019-05-03T18:13:44.504Z,30.00
2019-05-03T18:16:15.201Z,30.00
2019-05-03T18:18:46.730Z,30.00
2019-05-03T18:21:18.083Z,30.00
2019-05-03T18:23:50.053Z,29.90
2019-05-03T18:26:21.552Z,29.90
2019-05-03T18:28:55.173Z,29.80
2019-05-03T18:31:25.661Z,29.70
2019-05-03T18:33:56.824Z,29.70
2019-05-03T18:36:28.220Z,29.70
2019-05-03T18:38:59.339Z,29.70
2019-05-03T18:41:31.045Z,29.70
2019-05-03T18:44:05.091Z,29.70
2019-05-03T18:46:37.584Z,29.70
2019-05-03T18:49:09.488Z,29.70
2019-05-03T18:51:40.928Z,29.60
2019-05-03T18:54:12.210Z,29.60
2019-05-03T18:56:43.168Z,29.50
2019-05-03T18:59:14.675Z,29.50
2019-05-03T19:01:45.722Z,29.50
2019-05-03T19:04:18.558Z,29.50
2019-05-03T19:07:01.957Z,29.50
2019-05-03T19:09:25.082Z,29.50
2019-05-03T19:11:57.570Z,29.50
2019-05-03T19:14:29.549Z,29.50
2019-05-03T19:17:02.223Z,29.60
2019-05-03T19:19:35.320Z,29.60
2019-05-03T19:22:06.640Z,29.60
2019-05-03T19:24:37.542Z,29.60
2019-05-03T19:27:09.200Z,29.70
2019-05-03T19:29:41.004Z,29.60
2019-05-03T19:32:12.256Z,29.60
2019-05-03T19:34:50.053Z,29.50
2019-05-03T19:37:14.636Z,29.40
2019-05-03T19:39:46.007Z,29.40
2019-05-03T19:42:17.664Z,29.40
2019-05-03T19:44:48.642Z,29.40
2019-05-03T19:47:19.604Z,29.30
2019-05-03T19:49:51.290Z,29.30
2019-05-03T19:52:25.464Z,29.30
2019-05-03T19:54:56.114Z,29.20
2019-05-03T19:57:29.140Z,29.20
2019-05-03T20:00:00.898Z,29.20
2019-05-03T20:02:35.177Z,29.20
2019-05-03T20:05:09.138Z,29.10
2019-05-03T20:07:42.388Z,29.10
2019-05-03T20:10:14.701Z,29.10
2019-05-03T20:12:46.559Z,29.10
2019-05-03T20:15:18.212Z,29.20
2019-05-03T20:17:59.232Z,29.20
2019-05-03T20:20:22.561Z,29.30
2019-05-03T20:22:54.884Z,29.30
2019-05-03T20:25:26.989Z,29.40
2019-05-03T20:27:58.362Z,29.40
2019-05-03T20:30:29.308Z,29.40
2019-05-03T20:33:00.744Z,29.50
2019-05-03T20:35:32.509Z,29.50
2019-05-03T20:38:04.485Z,29.50
2019-05-03T20:40:35.049Z,29.50
2019-05-03T20:43:07.891Z,29.40
2019-05-03T20:45:40.612Z,29.30
2019-05-03T20:48:14.513Z,29.20
2019-05-03T20:50:46.122Z,29.10
2019-05-03T20:53:17.464Z,29.10
2019-05-03T20:55:49.142Z,29.00
2019-05-03T20:58:20.890Z,29.00
2019-05-03T21:00:51.942Z,28.90
2019-05-03T21:03:24.789Z,28.90
2019-05-03T21:05:56.669Z,28.80
2019-05-03T21:08:27.506Z,28.80
2019-05-03T21:10:58.828Z,28.80
2019-05-03T21:13:39.958Z,28.90
2019-05-03T21:16:05.566Z,29.00
2019-05-03T21:18:38.397Z,29.00
2019-05-03T21:21:11.020Z,29.00
2019-05-03T21:23:44.894Z,29.10
2019-05-03T21:26:16.722Z,29.10
2019-05-03T21:28:48.453Z,29.10
2019-05-03T21:31:20.169Z,29.10
2019-05-03T21:33:51.011Z,29.10
2019-05-03T21:36:25.374Z,29.10
2019-05-03T21:38:56.629Z,29.20
2019-05-03T21:41:28.386Z,29.20
2019-05-03T21:43:59.677Z,29.30
2019-05-03T21:46:32.308Z,29.30
2019-05-03T21:49:05.044Z,29.40
2019-05-03T21:51:36.746Z,29.40
2019-05-03T21:54:08.170Z,29.40
2019-05-03T21:56:39.855Z,29.40
2019-05-03T21:59:11.047Z,29.40
2019-05-03T22:01:45.628Z,29.30
2019-05-03T22:04:16.449Z,29.30
2019-05-03T22:06:48.222Z,29.20
2019-05-03T22:09:19.938Z,29.10
2019-05-03T22:11:52.252Z,29.00
2019-05-03T22:14:24.589Z,28.90
2019-05-03T22:16:58.029Z,28.80
2019-05-03T22:19:29.260Z,28.80
2019-05-03T22:22:01.845Z,28.70
2019-05-03T22:24:34.362Z,28.60
2019-05-03T22:27:07.268Z,28.60
2019-05-03T22:29:38.581Z,28.50
2019-05-03T22:32:10.338Z,28.50
2019-05-03T22:34:41.654Z,28.50
2019-05-03T22:37:14.236Z,28.50
2019-05-03T22:39:47.709Z,28.50
2019-05-03T22:42:19.203Z,28.60
2019-05-03T22:44:50.963Z,28.60
2019-05-03T22:47:22.117Z,28.60
2019-05-03T22:49:54.800Z,28.60
2019-05-03T22:52:26.556Z,28.50
2019-05-03T22:54:58.321Z,28.50
2019-05-03T22:57:29.648Z,28.50
2019-05-03T23:00:01.237Z,28.40
2019-05-03T23:02:32.683Z,28.40
2019-05-03T23:05:04.666Z,28.50
2019-05-03T23:07:37.421Z,28.50
2019-05-03T23:10:08.518Z,28.60
2019-05-03T23:12:39.870Z,28.60
2019-05-03T23:15:14.994Z,28.70
2019-05-03T23:17:45.800Z,28.80
2019-05-03T23:20:18.770Z,28.80
2019-05-03T23:22:50.475Z,28.80
2019-05-03T23:25:21.948Z,28.80
2019-05-03T23:27:55.141Z,28.80
2019-05-03T23:30:26.119Z,28.80
2019-05-03T23:32:57.284Z,28.80
2019-05-03T23:35:29.017Z,28.80
2019-05-03T23:38:00.781Z,28.80
2019-05-03T23:40:32.490Z,28.80
2019-05-03T23:43:05.213Z,28.80
2019-05-03T23:45:36.448Z,28.90
2019-05-03T23:48:08.013Z,28.90
2019-05-03T23:50:39.308Z,28.80
2019-05-03T23:53:10.926Z,28.80
2019-05-03T23:55:44.937Z,28.80
2019-05-03T23:58:16.611Z,28.80
